Terminal Aerodrome Forecast
Issued by NWS

Home | Current Version | Previous Version | Text Only | Print | Product List | Glossary On
Versions: 1 2 3 4 5 6 7 8 9 10 11 12 13 14 15 16 17 18 19 20 21 22 23 24 25 26 27 28 29 30 31 32 33 34 35 36 37 38 39 40 41 42 43 44 45 46 47 48 49 50
054
FTUS42 KRAH 031140
TAFRWI
TAF
KRWI 031140Z 0312/0412 VRB03KT 6SM -RA SCT004 SCT025 OVC100
      TEMPO 0312/0316 22004KT 4SM -SHRA BR BKN015
     FM031600 23007KT P6SM SCT025 BKN035 BKN250
      TEMPO 0316/0319 BKN030
     FM032000 23008KT P6SM VCSH SCT035 BKN250
      TEMPO 0320/0324 27020G40KT 1 1/2SM TSRA SCT020 BKN035CB OVC080
     FM040100 28003KT P6SM VCSH SCT020 BKN050=

USA.gov is the U.S. government's official web portal to all federal, state and local government web resources and services.